Aneta, North Dakota
Current Conditions -  °F | °C
As of 1:58 PM on Thursday 23 Oct 2014 (Local Time) from KRDR Reporting Station
Clear Clear  
Wind Chill: 69°   Ceiling: Unl
Heat Index: 69°   Visibility: 10mi
Dew Point: 39°   Wind: 13mph
Humidity: 34%   Direction: 220°SW
Pressure: 29.82"   Gusts: NA
Location:  47.68°N, 97.99°W
Report Text: KRDR 231858Z AUTO 22011KT 10SM CLR 21/04 A2982 RMK AO2 SLP104 T02060040
Loading
Personal Weather Stations






























Interactive Weather Map
Tropical Storm Tracking
New forecast layout! Learn more

10-Day Weather Forecast

Advertisements
Track Severe Weather on mobile